Time;durP1;ratioP1;P1;durP2;ratioP2;P2;SDS_P1;SDS_P2;PMS_P1;PMS_P2;Temp;Humidity;BMP_temperature;BMP_pressure;BME280_temperature;BME280_humidity;BME280_pressure;Samples;Min_cycle;Max_cycle;Signal;HPM_P1;HPM_P2
2021/08/21 00:00:33;;;;;;;26.80;13.00;;;;;;;19.63;60.39;99077.24;112426;1200;107541;-81
2021/08/21 00:03:10;;;;;;;23.10;11.40;;;;;;;19.60;60.42;99082.60;112163;1198;96292;-82
2021/08/21 00:05:39;;;;;;;24.50;12.70;;;;;;;19.58;60.47;99087.87;112207;1198;96230;-80
2021/08/21 00:08:09;;;;;;;29.20;13.20;;;;;;;19.55;60.54;99085.55;112053;1196;109930;-79
2021/08/21 00:10:37;;;;;;;25.60;13.60;;;;;;;19.52;60.54;99089.30;112201;1197;96250;-80
2021/08/21 00:13:05;;;;;;;25.30;12.30;;;;;;;19.49;60.66;99090.74;112664;1196;107491;-79
2021/08/21 00:15:34;;;;;;;24.70;12.80;;;;;;;19.44;60.65;99091.61;112330;1196;96756;-78
2021/08/21 00:18:02;;;;;;;25.00;12.50;;;;;;;19.40;60.67;99090.57;112666;1196;95589;-78
2021/08/21 00:20:32;;;;;;;23.50;12.50;;;;;;;19.38;60.75;99096.98;112125;1204;110175;-79
2021/08/21 00:23:00;;;;;;;23.60;12.10;;;;;;;19.35;60.73;99092.20;112187;1204;94168;-80
2021/08/21 00:25:31;;;;;;;28.10;12.30;;;;;;;19.32;60.82;99091.80;112149;1204;107365;-80
2021/08/21 00:27:58;;;;;;;23.80;12.50;;;;;;;19.30;60.97;99094.52;112195;1198;95035;-80
2021/08/21 00:30:26;;;;;;;25.50;11.50;;;;;;;19.29;60.89;99094.89;112421;1196;96375;-80
2021/08/21 00:32:54;;;;;;;30.40;13.00;;;;;;;19.27;60.89;99093.59;112209;1204;109713;-80
2021/08/21 00:35:24;;;;;;;22.60;11.20;;;;;;;19.26;61.03;99097.48;112296;1204;96308;-80
2021/08/21 00:37:52;;;;;;;25.50;11.60;;;;;;;19.25;61.02;99093.50;112247;1204;107177;-79
2021/08/21 00:40:20;;;;;;;25.30;11.60;;;;;;;19.24;61.00;99091.98;112122;1203;96223;-78
2021/08/21 00:42:52;;;;;;;25.10;11.60;;;;;;;19.22;61.21;99091.30;112144;1204;94060;-79
2021/08/21 00:45:21;;;;;;;24.60;12.20;;;;;;;19.20;61.22;99089.65;112088;1204;109792;-79
2021/08/21 00:47:50;;;;;;;26.00;12.00;;;;;;;19.19;61.26;99086.34;112147;1204;96294;-78
2021/08/21 00:50:18;;;;;;;25.80;11.80;;;;;;;19.17;61.23;99084.98;112405;1197;107511;-79
2021/08/21 00:52:47;;;;;;;23.20;10.90;;;;;;;19.14;61.32;99083.11;112276;1198;96246;-79
2021/08/21 00:55:18;;;;;;;23.40;12.10;;;;;;;19.13;61.42;99084.39;112300;1195;96319;-80
2021/08/21 00:57:45;;;;;;;22.70;11.20;;;;;;;19.11;61.43;99086.55;112486;1204;109624;-80
2021/08/21 01:00:13;;;;;;;23.80;11.60;;;;;;;19.09;61.43;99088.88;112343;1198;94449;-79
2021/08/21 01:02:44;;;;;;;23.30;11.00;;;;;;;19.08;61.53;99092.66;112648;1203;107596;-78
2021/08/21 01:05:16;;;;;;;22.40;11.90;;;;;;;19.06;61.54;99092.13;112474;1203;96679;-80
2021/08/21 01:07:47;;;;;;;21.40;10.80;;;;;;;19.05;61.66;99090.98;112507;1203;96335;-77
2021/08/21 01:10:20;;;;;;;24.20;12.20;;;;;;;19.03;61.76;99088.98;112503;1203;109120;-79
2021/08/21 01:12:55;;;;;;;23.20;11.30;;;;;;;19.01;61.71;99087.74;112457;1198;96288;-78
2021/08/21 01:15:27;;;;;;;22.30;11.50;;;;;;;18.99;61.78;99085.23;112457;1203;107425;-78
2021/08/21 01:17:58;;;;;;;24.60;12.00;;;;;;;18.97;61.78;99084.45;112462;1202;95505;-78
2021/08/21 01:20:29;;;;;;;23.60;11.20;;;;;;;18.95;61.82;99081.96;112484;1203;94398;-77
2021/08/21 01:23:03;;;;;;;23.20;12.20;;;;;;;18.93;61.90;99082.69;112487;1202;109738;-77
2021/08/21 01:25:35;;;;;;;25.60;13.00;;;;;;;18.92;61.97;99082.10;112396;1203;96202;-76
2021/08/21 01:28:03;;;;;;;24.20;11.60;;;;;;;18.91;61.94;99083.65;112338;1203;107868;-77
2021/08/21 01:30:31;;;;;;;26.40;11.70;;;;;;;18.88;62.00;99081.41;112268;1204;93930;-78
2021/08/21 01:33:01;;;;;;;25.00;12.80;;;;;;;18.84;62.05;99085.00;112226;1198;94356;-76
2021/08/21 01:35:29;;;;;;;23.30;11.90;;;;;;;18.82;62.06;99084.23;112288;1197;109719;-77
2021/08/21 01:37:56;;;;;;;23.00;11.30;;;;;;;18.79;62.18;99085.30;112309;1204;96354;-77
2021/08/21 01:40:24;;;;;;;24.20;12.20;;;;;;;18.73;62.17;99082.23;112234;1198;107335;-75
2021/08/21 01:42:52;;;;;;;22.20;11.40;;;;;;;18.70;62.18;99081.17;112314;1204;96331;-78
2021/08/21 01:45:23;;;;;;;23.90;11.50;;;;;;;18.67;62.26;99080.30;112244;1204;95021;-78
2021/08/21 01:47:51;;;;;;;26.30;13.10;;;;;;;18.64;62.23;99083.10;112263;1204;109822;-77
2021/08/21 01:50:22;;;;;;;22.10;11.70;;;;;;;18.59;62.22;99083.52;112264;1204;96909;-78
2021/08/21 01:52:53;;;;;;;23.10;12.40;;;;;;;18.54;62.31;99085.94;112291;1204;107532;-79
2021/08/21 01:55:22;;;;;;;23.20;12.40;;;;;;;18.48;62.17;99083.63;112267;1198;97419;-79
2021/08/21 01:57:53;;;;;;;22.80;11.30;;;;;;;18.41;62.36;99086.48;112305;1203;96414;-78
2021/08/21 02:00:30;;;;;;;23.60;11.60;;;;;;;18.37;62.38;99090.50;112253;1204;109367;-78
2021/08/21 02:02:58;;;;;;;21.40;10.80;;;;;;;18.33;62.47;99090.43;112302;1204;96337;-76
2021/08/21 02:05:26;;;;;;;24.70;12.00;;;;;;;18.28;62.51;99094.67;112280;1203;107597;-78
2021/08/21 02:07:54;;;;;;;20.70;10.20;;;;;;;18.23;62.47;99093.10;112253;1199;96818;-78
2021/08/21 02:10:25;;;;;;;24.70;10.20;;;;;;;18.17;62.63;99094.91;112298;1204;94069;-79
2021/08/21 02:12:53;;;;;;;20.50;10.10;;;;;;;18.13;62.53;99099.09;112248;1198;111049;-79
2021/08/21 02:15:20;;;;;;;19.60;10.10;;;;;;;18.09;62.78;99097.23;112290;1204;96305;-78
2021/08/21 02:17:51;;;;;;;22.80;11.20;;;;;;;18.06;62.80;99096.83;112317;1204;107458;-77
2021/08/21 02:20:20;;;;;;;21.90;11.20;;;;;;;18.03;62.79;99102.66;112266;1198;96319;-78
2021/08/21 02:22:47;;;;;;;22.30;11.00;;;;;;;18.00;62.88;99106.20;112278;1195;96435;-79
2021/08/21 02:25:19;;;;;;;23.60;11.20;;;;;;;17.97;63.14;99107.90;112202;1200;109552;-77
2021/08/21 02:27:58;;;;;;;27.90;12.60;;;;;;;17.94;62.99;99110.77;112288;1204;96233;-79
2021/08/21 02:30:30;;;;;;;21.50;10.20;;;;;;;17.90;63.09;99115.97;112243;1204;108032;-78
2021/08/21 02:32:58;;;;;;;20.90;11.10;;;;;;;17.87;63.15;99113.78;112111;1198;96341;-78
2021/08/21 02:35:25;;;;;;;21.80;11.20;;;;;;;17.82;63.12;99112.98;112385;1198;96300;-78
2021/08/21 02:37:53;;;;;;;22.20;11.00;;;;;;;17.78;63.18;99112.85;112344;1204;109791;-78
2021/08/21 02:40:25;;;;;;;21.20;10.30;;;;;;;17.76;63.25;99115.11;112240;1204;94924;-77
2021/08/21 02:42:53;;;;;;;20.90;10.80;;;;;;;17.74;63.37;99117.79;112177;1204;108354;-77
2021/08/21 02:45:21;;;;;;;21.00;10.30;;;;;;;17.71;63.34;99118.83;112178;1203;96303;-78
2021/08/21 02:47:51;;;;;;;21.70;10.40;;;;;;;17.70;63.38;99123.59;112315;1198;94386;-77
2021/08/21 02:50:20;;;;;;;19.90;9.80;;;;;;;17.68;63.38;99128.25;112294;1198;107925;-77
2021/08/21 02:52:50;;;;;;;21.10;10.00;;;;;;;17.65;63.56;99133.37;112216;1198;96317;-78
2021/08/21 02:55:18;;;;;;;18.00;9.70;;;;;;;17.62;63.39;99136.55;112309;1204;107497;-78
2021/08/21 02:57:48;;;;;;;23.40;9.70;;;;;;;17.62;63.49;99141.81;112300;1203;93909;-77
2021/08/21 03:00:19;;;;;;;19.20;8.80;;;;;;;17.60;63.55;99141.06;112263;1199;96311;-77
2021/08/21 03:02:47;;;;;;;17.90;9.20;;;;;;;17.59;63.73;99145.13;112339;1197;109372;-78
2021/08/21 03:05:15;;;;;;;20.60;10.00;;;;;;;17.58;63.69;99148.84;112327;1204;96220;-77
2021/08/21 03:07:43;;;;;;;21.50;9.40;;;;;;;17.57;63.73;99144.82;112330;1204;107439;-76
2021/08/21 03:10:11;;;;;;;19.60;9.50;;;;;;;17.56;63.59;99145.76;112312;1204;96325;-76
2021/08/21 03:12:39;;;;;;;19.20;9.20;;;;;;;17.55;63.81;99150.16;112346;1198;94012;-78
2021/08/21 03:15:07;;;;;;;18.80;9.10;;;;;;;17.56;63.97;99148.29;112306;1203;109483;-77
2021/08/21 03:17:35;;;;;;;19.40;9.60;;;;;;;17.55;63.83;99150.39;112323;1204;96289;-77
2021/08/21 03:20:04;;;;;;;21.10;10.20;;;;;;;17.53;63.77;99151.80;112268;1204;107425;-77
2021/08/21 03:22:35;;;;;;;20.70;9.40;;;;;;;17.52;63.94;99151.42;112255;1200;96312;-78
2021/08/21 03:25:05;;;;;;;18.80;9.60;;;;;;;17.51;64.05;99154.50;112220;1195;96221;-78
2021/08/21 03:27:33;;;;;;;20.30;9.60;;;;;;;17.51;64.24;99154.91;112306;1198;109856;-79
2021/08/21 03:30:04;;;;;;;19.50;8.70;;;;;;;17.50;64.19;99153.89;112336;1204;94497;-78
2021/08/21 03:32:32;;;;;;;19.00;8.80;;;;;;;17.50;64.05;99152.79;112294;1204;107305;-78
2021/08/21 03:35:03;;;;;;;17.60;8.60;;;;;;;17.50;64.13;99155.00;112701;1198;96317;-78
2021/08/21 03:37:35;;;;;;;19.70;8.70;;;;;;;17.49;64.32;99157.04;112344;1196;93926;-78
2021/08/21 03:40:04;;;;;;;16.70;8.30;;;;;;;17.48;64.30;99156.06;112265;1204;109641;-79
2021/08/21 03:42:32;;;;;;;16.70;7.70;;;;;;;17.49;64.22;99160.33;112470;1195;96317;-78
2021/08/21 03:44:59;;;;;;;17.90;9.00;;;;;;;17.48;64.33;99159.15;112403;1200;106557;-78
2021/08/21 03:47:27;;;;;;;17.10;8.10;;;;;;;17.47;64.31;99161.16;112392;1198;96256;-77
2021/08/21 03:49:55;;;;;;;17.70;7.40;;;;;;;17.47;64.37;99161.36;112362;1204;94439;-79
2021/08/21 03:52:23;;;;;;;18.00;7.90;;;;;;;17.46;64.39;99164.00;112473;1195;109772;-79
2021/08/21 03:54:54;;;;;;;17.90;8.80;;;;;;;17.47;64.51;99168.92;112417;1200;94287;-78
2021/08/21 03:57:22;;;;;;;16.60;7.60;;;;;;;17.46;64.67;99169.71;112314;1203;106803;-78
2021/08/21 03:59:50;;;;;;;15.80;7.80;;;;;;;17.46;64.61;99172.80;112423;1203;96352;-78
2021/08/21 04:02:18;;;;;;;17.80;8.40;;;;;;;17.45;64.54;99171.22;112475;1197;96182;-78
2021/08/21 04:04:49;;;;;;;16.50;8.10;;;;;;;17.44;64.65;99177.29;112308;1203;109734;-78
2021/08/21 04:07:20;;;;;;;18.10;8.60;;;;;;;17.44;64.72;99178.02;112394;1203;94382;-79
2021/08/21 04:09:47;;;;;;;19.80;8.80;;;;;;;17.45;64.73;99179.48;112373;1203;107380;-77
2021/08/21 04:12:18;;;;;;;17.70;8.50;;;;;;;17.45;64.82;99179.98;112433;1204;96308;-77
2021/08/21 04:14:48;;;;;;;20.90;8.70;;;;;;;17.47;64.84;99182.52;112412;1199;96339;-77
2021/08/21 04:17:16;;;;;;;17.80;8.60;;;;;;;17.49;64.81;99185.61;112420;1203;110162;-77
2021/08/21 04:19:47;;;;;;;18.40;8.80;;;;;;;17.50;65.00;99190.86;112368;1203;96769;-78
2021/08/21 04:22:18;;;;;;;18.60;8.80;;;;;;;17.51;65.00;99191.63;112380;1204;107434;-79
2021/08/21 04:24:46;;;;;;;17.90;8.40;;;;;;;17.52;64.98;99194.61;112295;1196;96318;-79
2021/08/21 04:27:17;;;;;;;17.90;8.20;;;;;;;17.52;65.04;99199.92;112345;1203;96340;-78
2021/08/21 04:29:46;;;;;;;19.70;8.60;;;;;;;17.54;65.11;99197.83;112373;1200;110215;-78
2021/08/21 04:32:16;;;;;;;20.50;8.20;;;;;;;17.56;65.11;99199.22;112293;1195;96789;-77
2021/08/21 04:34:47;;;;;;;15.80;7.90;;;;;;;17.57;65.15;99201.10;112411;1204;107404;-77
2021/08/21 04:37:16;;;;;;;17.40;8.40;;;;;;;17.58;65.33;99204.55;112304;1195;94690;-77
2021/08/21 04:39:46;;;;;;;20.10;9.00;;;;;;;17.60;65.24;99208.10;112442;1196;95108;-78
2021/08/21 04:42:16;;;;;;;18.30;8.70;;;;;;;17.62;65.34;99206.30;112378;1196;109737;-78
2021/08/21 04:44:44;;;;;;;19.90;8.30;;;;;;;17.65;65.21;99206.80;112386;1204;96293;-78
2021/08/21 04:47:12;;;;;;;17.10;8.20;;;;;;;17.66;65.31;99207.14;112358;1206;107618;-80
2021/08/21 04:49:43;;;;;;;20.60;9.10;;;;;;;17.68;65.48;99216.14;112342;1195;96198;-76
2021/08/21 04:52:11;;;;;;;18.40;8.20;;;;;;;17.69;65.39;99217.66;112267;1195;96253;-77
2021/08/21 04:54:38;;;;;;;18.40;8.70;;;;;;;17.69;65.38;99216.05;112167;1204;109801;-77
2021/08/21 04:57:06;;;;;;;17.70;8.90;;;;;;;17.72;65.45;99220.78;112227;1205;96163;-77
2021/08/21 04:59:34;;;;;;;20.50;9.10;;;;;;;17.72;65.49;99224.31;112309;1204;107431;-77
2021/08/21 05:02:02;;;;;;;19.00;8.90;;;;;;;17.73;65.52;99227.64;112299;1203;96324;-77
2021/08/21 05:04:30;;;;;;;20.00;9.90;;;;;;;17.75;65.43;99229.08;112379;1205;96214;-78
2021/08/21 05:06:58;;;;;;;21.10;9.30;;;;;;;17.74;65.59;99223.81;112389;1205;109767;-78
2021/08/21 05:09:25;;;;;;;20.40;9.10;;;;;;;17.71;65.54;99229.29;112369;1204;96224;-78
2021/08/21 05:11:53;;;;;;;20.00;10.10;;;;;;;17.71;65.51;99228.04;112359;1205;107451;-77
2021/08/21 05:14:21;;;;;;;17.20;8.90;;;;;;;17.72;65.58;99228.29;112397;1205;96401;-78
2021/08/21 05:16:50;;;;;;;17.70;8.60;;;;;;;17.72;65.62;99230.81;112417;1204;96192;-78
2021/08/21 05:19:30;;;;;;;20.30;9.90;;;;;;;17.72;65.74;99227.02;112238;1204;109698;-77
2021/08/21 05:22:09;;;;;;;23.80;9.20;;;;;;;17.75;65.53;99226.59;112357;1200;96308;-75
2021/08/21 05:24:40;;;;;;;20.60;9.90;;;;;;;17.79;65.82;99225.65;112297;1204;107317;-76
2021/08/21 05:27:10;;;;;;;18.10;9.20;;;;;;;17.83;65.76;99229.30;112229;1196;96211;-77
2021/08/21 05:29:40;;;;;;;18.50;9.10;;;;;;;17.85;65.88;99229.45;112234;1196;96673;-71
2021/08/21 05:32:10;;;;;;;20.10;9.70;;;;;;;17.89;65.79;99234.12;112285;1198;109642;-78
2021/08/21 05:34:41;;;;;;;19.10;9.40;;;;;;;17.93;65.81;99240.90;112305;1205;96182;-79
2021/08/21 05:37:09;;;;;;;17.90;9.00;;;;;;;17.99;65.83;99238.52;112269;1204;107487;-75
2021/08/21 05:39:37;;;;;;;20.00;9.80;;;;;;;18.06;66.04;99239.33;112322;1198;96284;-77
2021/08/21 05:42:05;;;;;;;18.30;9.10;;;;;;;18.14;66.02;99243.66;112274;1200;96302;-82
2021/08/21 05:44:32;;;;;;;17.90;9.30;;;;;;;18.23;65.92;99242.59;112280;1200;109682;-77
2021/08/21 05:47:00;;;;;;;21.00;9.70;;;;;;;18.32;66.05;99248.89;112342;1205;94510;-77
2021/08/21 05:49:28;;;;;;;21.10;10.00;;;;;;;18.44;66.08;99249.06;112236;1206;107861;-74
2021/08/21 05:51:56;;;;;;;20.80;11.10;;;;;;;18.58;65.92;99247.48;112275;1198;96217;-76
2021/08/21 05:54:24;;;;;;;20.20;10.00;;;;;;;18.64;66.00;99250.60;112573;1196;96267;-76
2021/08/21 05:56:52;;;;;;;19.40;10.30;;;;;;;18.65;66.00;99251.21;112241;1195;109787;-76
2021/08/21 05:59:19;;;;;;;21.70;10.60;;;;;;;18.67;65.95;99256.00;112393;1196;96323;-72
2021/08/21 06:01:47;;;;;;;20.00;9.00;;;;;;;18.69;66.04;99256.80;112375;1204;107553;-77
2021/08/21 06:04:18;;;;;;;23.50;10.70;;;;;;;18.70;65.97;99257.36;112391;1199;96415;-78
2021/08/21 06:06:46;;;;;;;20.50;9.80;;;;;;;18.75;66.06;99257.94;112305;1196;96368;-75
2021/08/21 06:09:17;;;;;;;21.20;10.00;;;;;;;18.85;66.18;99254.73;112352;1204;109789;-77
2021/08/21 06:11:48;;;;;;;22.60;10.90;;;;;;;18.98;66.10;99259.34;112357;1203;94341;-73
2021/08/21 06:14:15;;;;;;;21.60;11.40;;;;;;;19.07;66.05;99258.83;112325;1203;107368;-75
2021/08/21 06:16:43;;;;;;;21.50;11.40;;;;;;;19.15;66.05;99258.33;112264;1199;96304;-77
2021/08/21 06:19:11;;;;;;;19.80;10.80;;;;;;;19.19;66.00;99259.08;112309;1199;96117;-73
2021/08/21 06:21:44;;;;;;;22.90;10.70;;;;;;;19.21;66.04;99262.72;112330;1198;109748;-72
2021/08/21 06:24:12;;;;;;;22.70;11.40;;;;;;;19.22;65.99;99265.52;112356;1205;96323;-75
2021/08/21 06:26:40;;;;;;;18.80;10.10;;;;;;;19.23;66.04;99271.29;112334;1205;107522;-77
2021/08/21 06:29:08;;;;;;;22.50;12.00;;;;;;;19.26;65.84;99268.10;112323;1200;96464;-77
2021/08/21 06:31:36;;;;;;;23.00;10.80;;;;;;;19.26;65.84;99268.07;112377;1195;96334;-78
2021/08/21 06:34:04;;;;;;;22.20;11.60;;;;;;;19.26;65.88;99265.44;112352;1204;109715;-78
2021/08/21 06:36:32;;;;;;;20.00;10.40;;;;;;;19.23;65.89;99264.68;112346;1200;96240;-76
2021/08/21 06:38:59;;;;;;;17.00;9.60;;;;;;;19.20;66.01;99265.48;112378;1205;107562;-74
2021/08/21 06:41:27;;;;;;;19.20;9.50;;;;;;;19.18;65.91;99267.09;112344;1196;96236;-74
2021/08/21 06:43:58;;;;;;;17.80;9.50;;;;;;;19.15;65.90;99267.42;112429;1196;96637;-75
2021/08/21 06:46:26;;;;;;;17.30;8.00;;;;;;;19.14;66.03;99271.13;112375;1196;109805;-76
2021/08/21 06:48:54;;;;;;;16.30;7.60;;;;;;;19.19;66.02;99271.84;112387;1204;96332;-77
2021/08/21 06:51:21;;;;;;;18.00;7.40;;;;;;;19.31;65.97;99270.62;112398;1207;107609;-77
2021/08/21 06:53:49;;;;;;;19.30;7.90;;;;;;;19.43;66.02;99268.63;112328;1198;96260;-76
2021/08/21 06:56:17;;;;;;;16.00;7.00;;;;;;;19.52;65.93;99274.92;112399;1195;96945;-76
2021/08/21 06:58:45;;;;;;;16.40;7.50;;;;;;;19.59;65.93;99279.65;112367;1200;109805;-76
2021/08/21 07:01:13;;;;;;;16.20;7.80;;;;;;;19.66;65.96;99277.11;112382;1204;96273;-77
2021/08/21 07:03:41;;;;;;;18.90;8.10;;;;;;;19.81;65.74;99278.63;112353;1203;107456;-79
2021/08/21 07:06:09;;;;;;;15.10;6.70;;;;;;;19.91;65.69;99279.90;112319;1195;96343;-78
2021/08/21 07:08:36;;;;;;;15.40;7.70;;;;;;;20.01;65.78;99279.23;112246;1199;96317;-81
2021/08/21 07:11:04;;;;;;;15.60;6.90;;;;;;;20.04;65.75;99282.96;112441;1198;109936;-84
2021/08/21 07:13:35;;;;;;;15.80;7.40;;;;;;;20.14;65.69;99281.08;112377;1205;94582;-80
2021/08/21 07:16:03;;;;;;;17.20;6.70;;;;;;;20.34;65.64;99282.83;112330;1205;107436;-78
2021/08/21 07:18:34;;;;;;;14.40;6.60;;;;;;;20.81;65.11;99288.46;112381;1198;96271;-82
2021/08/21 07:21:02;;;;;;;11.60;5.40;;;;;;;22.01;63.97;99285.41;112435;1196;96229;-79
2021/08/21 07:23:32;;;;;;;10.60;5.50;;;;;;;23.66;62.87;99289.90;112345;1204;109870;-80
2021/08/21 07:26:03;;;;;;;9.00;4.90;;;;;;;25.27;62.27;99292.92;112389;1204;96332;-80
2021/08/21 07:28:31;;;;;;;12.10;4.40;;;;;;;26.13;62.37;99292.10;112359;1205;106560;-79
2021/08/21 07:31:02;;;;;;;9.50;5.10;;;;;;;26.90;62.37;99292.14;112363;1200;94576;-82
2021/08/21 07:33:32;;;;;;;10.20;5.10;;;;;;;27.65;62.28;99295.97;112340;1205;94228;-83
2021/08/21 07:36:00;;;;;;;9.20;4.90;;;;;;;27.18;63.22;99298.48;112370;1199;109430;-81
2021/08/21 07:38:27;;;;;;;11.00;5.50;;;;;;;26.92;63.10;99301.54;112393;1204;96276;-82
2021/08/21 07:40:55;;;;;;;12.70;6.20;;;;;;;27.28;62.39;99307.45;112428;1203;106090;-80
2021/08/21 07:43:23;;;;;;;10.90;5.40;;;;;;;27.85;61.58;99308.25;112365;1196;97026;-81
2021/08/21 07:45:51;;;;;;;10.60;5.40;;;;;;;28.24;61.19;99308.40;112376;1196;96394;-79
2021/08/21 07:48:19;;;;;;;9.80;4.80;;;;;;;29.05;60.79;99309.13;112357;1196;111123;-84
2021/08/21 07:50:49;;;;;;;11.10;5.20;;;;;;;29.16;61.24;99308.94;112415;1203;96821;-78
2021/08/21 07:53:17;;;;;;;9.40;4.90;;;;;;;29.75;60.42;99316.48;112343;1203;107512;-76
2021/08/21 07:55:46;;;;;;;12.00;4.60;;;;;;;30.69;59.48;99310.22;112402;1204;96206;-80
2021/08/21 07:58:17;;;;;;;11.00;5.00;;;;;;;31.42;58.35;99310.52;112333;1205;96302;-71
2021/08/21 08:00:44;;;;;;;8.90;4.70;;;;;;;32.35;58.16;99307.77;112383;1205;101158;-73
2021/08/21 08:03:15;;;;;;;8.70;4.90;;;;;;;33.37;58.32;99306.13;112434;1200;94305;-83
2021/08/21 08:05:46;;;;;;;7.90;4.30;;;;;;;33.82;57.76;99307.95;112323;1204;98801;-82
2021/08/21 08:08:14;;;;;;;7.00;4.30;;;;;;;34.46;56.83;99309.92;112352;1205;96330;-82
2021/08/21 08:10:45;;;;;;;10.80;4.60;;;;;;;35.05;56.38;99310.70;112387;1195;96315;-78
2021/08/21 08:13:13;;;;;;;5.70;4.00;;;;;;;35.12;56.25;99316.43;112321;1200;101062;-85
2021/08/21 08:15:44;;;;;;;6.00;4.10;;;;;;;35.52;55.27;99318.16;112444;1200;96744;-89
2021/08/21 08:18:14;;;;;;;11.40;4.90;;;;;;;36.02;54.41;99319.10;112378;1204;98900;-90
2021/08/21 08:20:43;;;;;;;8.00;4.20;;;;;;;36.00;54.10;99317.98;112401;1196;96311;-88
2021/08/21 08:23:13;;;;;;;8.50;4.70;;;;;;;35.84;53.60;99316.16;112465;1196;96336;-87
2021/08/21 08:25:41;;;;;;;8.80;4.10;;;;;;;35.95;53.06;99318.41;112450;1200;101202;-81
2021/08/21 08:28:09;;;;;;;5.80;4.00;;;;;;;35.25;52.59;99320.39;112548;1204;96750;-79
2021/08/21 08:30:37;;;;;;;9.30;4.30;;;;;;;34.90;52.12;99321.20;112635;1198;98192;-83
2021/08/21 08:33:09;;;;;;;8.00;4.20;;;;;;;35.41;51.65;99324.38;112519;1200;96985;-84
2021/08/21 08:35:37;;;;;;;5.40;4.00;;;;;;;36.03;51.16;99324.29;112543;1200;97488;-83
2021/08/21 08:38:05;;;;;;;6.30;4.20;;;;;;;36.41;50.61;99320.23;112600;1196;101082;-73
2021/08/21 08:40:33;;;;;;;5.90;4.00;;;;;;;36.50;49.63;99326.60;112365;1205;96704;-74
2021/08/21 08:43:04;;;;;;;7.00;3.90;;;;;;;35.51;49.63;99326.75;112389;1196;98785;-72
2021/08/21 08:45:35;;;;;;;7.10;3.90;;;;;;;34.82;49.33;99327.44;112345;1204;93896;-75
2021/08/21 08:48:06;;;;;;;6.10;3.80;;;;;;;34.46;48.93;99331.76;112322;1204;93928;-74
2021/08/21 08:50:35;;;;;;;5.40;3.90;;;;;;;33.94;48.61;99330.13;112312;1200;101203;-80
2021/08/21 08:53:03;;;;;;;7.60;4.00;;;;;;;33.66;48.14;99326.70;112381;1204;94943;-83
2021/08/21 08:55:32;;;;;;;7.00;3.80;;;;;;;33.86;47.90;99328.90;112355;1204;98998;-84
2021/08/21 08:58:04;;;;;;;6.50;4.10;;;;;;;33.37;47.36;99330.50;112421;1204;94369;-83
2021/08/21 09:00:34;;;;;;;7.40;4.00;;;;;;;32.74;47.41;99332.75;112380;1197;93888;-83
2021/08/21 09:03:03;;;;;;;6.40;3.60;;;;;;;32.39;46.79;99327.52;112458;1204;101258;-82
2021/08/21 09:05:40;;;;;;;5.50;3.50;;;;;;;32.44;46.48;99323.59;112344;1204;96734;-79
2021/08/21 09:08:27;;;;;;;7.30;4.00;;;;;;;32.83;46.36;99325.07;112340;1200;98821;-79
2021/08/21 09:11:00;;;;;;;5.80;3.80;;;;;;;33.14;46.22;99329.44;112345;1200;94461;-78
2021/08/21 09:13:31;;;;;;;5.10;3.60;;;;;;;33.35;45.17;99331.55;112376;1200;96228;-79
2021/08/21 09:16:02;;;;;;;6.20;4.00;;;;;;;33.53;44.54;99324.48;112365;1204;101821;-68
2021/08/21 09:18:37;;;;;;;6.50;4.30;;;;;;;33.92;44.69;99328.03;112400;1206;94162;-67
2021/08/21 09:21:14;;;;;;;4.40;3.60;;;;;;;34.37;44.36;99328.32;112340;1205;99388;-69
2021/08/21 09:23:46;;;;;;;5.60;3.60;;;;;;;34.73;44.23;99330.05;112323;1195;96243;-68
2021/08/21 09:26:30;;;;;;;4.60;3.30;;;;;;;35.00;43.75;99333.50;112397;1200;96404;-69
2021/08/21 09:29:04;;;;;;;9.80;4.00;;;;;;;34.95;43.47;99328.77;112320;1204;101652;-68
2021/08/21 09:31:37;;;;;;;5.60;3.80;;;;;;;34.67;43.75;99328.89;112365;1205;96342;-67
2021/08/21 09:34:08;;;;;;;6.70;4.00;;;;;;;34.27;43.49;99333.95;112384;1204;98805;-68
2021/08/21 09:36:46;;;;;;;8.70;3.70;;;;;;;33.57;43.11;99331.98;112355;1205;94507;-68
2021/08/21 09:39:32;;;;;;;6.20;3.80;;;;;;;33.17;43.27;99333.77;112291;1200;94651;-68
2021/08/21 09:42:07;;;;;;;5.80;3.90;;;;;;;32.35;42.71;99334.03;112285;1203;101764;-68
2021/08/21 09:44:38;;;;;;;8.00;4.00;;;;;;;31.46;42.44;99334.52;112245;1204;96854;-82
2021/08/21 09:47:22;;;;;;;7.50;4.00;;;;;;;30.57;42.41;99337.83;112281;1205;107494;-76
2021/08/21 09:50:18;;;;;;;8.40;4.10;;;;;;;30.22;42.18;99335.08;112240;1196;96519;-77
2021/08/21 09:52:49;;;;;;;7.00;4.00;;;;;;;29.82;41.90;99337.28;112269;1200;96215;-76
2021/08/21 09:55:22;;;;;;;6.60;4.00;;;;;;;30.14;41.62;99329.77;112323;1200;110246;-90
2021/08/21 09:58:02;;;;;;;7.90;4.10;;;;;;;30.13;41.57;99332.06;112348;1203;94896;-79
2021/08/21 10:00:54;;;;;;;6.00;4.10;;;;;;;30.06;41.74;99332.70;112229;1200;108139;-78
2021/08/21 10:03:28;;;;;;;6.60;3.90;;;;;;;29.89;41.58;99332.05;112288;1200;95747;-79
2021/08/21 10:05:58;;;;;;;11.30;5.00;;;;;;;29.67;41.63;99335.62;112324;1197;94097;-82
2021/08/21 10:08:28;;;;;;;11.20;4.50;;;;;;;29.50;41.54;99331.95;112326;1204;109702;-72
2021/08/21 10:11:02;;;;;;;10.10;4.20;;;;;;;29.40;41.59;99332.19;112317;1203;94128;-73
2021/08/21 10:13:33;;;;;;;19.20;4.40;;;;;;;29.11;41.40;99335.83;112310;1200;107471;-77
2021/08/21 10:16:07;;;;;;;10.80;4.50;;;;;;;28.63;41.15;99336.34;112109;1197;96315;-74
2021/08/21 10:18:35;;;;;;;5.90;3.70;;;;;;;28.04;40.90;99335.90;113905;1196;94924;-78
2021/08/21 10:21:04;;;;;;;19.80;5.90;;;;;;;27.53;41.07;99334.72;113014;1196;109773;-75
2021/08/21 10:23:34;;;;;;;16.70;5.10;;;;;;;27.12;41.07;99335.67;112418;1197;96651;-71
2021/08/21 10:26:11;;;;;;;9.90;4.40;;;;;;;26.78;40.90;99337.05;112384;1197;107923;-72
2021/08/21 10:28:40;;;;;;;9.90;4.50;;;;;;;26.44;40.87;99339.90;113997;1195;94411;-72
2021/08/21 10:31:29;;;;;;;9.00;4.20;;;;;;;26.18;40.98;99338.96;112334;1203;96302;-75
2021/08/21 10:34:04;;;;;;;8.60;4.60;;;;;;;26.08;41.21;99332.63;112269;1204;109257;-72
2021/08/21 10:36:52;;;;;;;8.00;4.00;;;;;;;25.98;41.22;99335.41;112346;1204;96251;-73
2021/08/21 10:39:26;;;;;;;12.00;4.60;;;;;;;25.86;41.15;99333.45;112319;1204;108754;-72
2021/08/21 10:41:57;;;;;;;9.50;4.70;;;;;;;25.64;41.20;99331.98;112360;1196;96268;-73
2021/08/21 10:44:48;;;;;;;8.20;4.10;;;;;;;25.50;41.31;99328.38;112354;1203;94008;-73
2021/08/21 10:47:31;;;;;;;10.10;4.70;;;;;;;25.49;41.49;99331.30;112358;1198;109920;-70
2021/08/21 10:50:11;;;;;;;7.60;4.00;;;;;;;25.39;41.32;99328.14;112289;1204;96624;-70
2021/08/21 10:52:51;;;;;;;7.50;4.10;;;;;;;25.27;41.42;99330.51;112289;1204;107253;-77
2021/08/21 10:55:27;;;;;;;10.90;4.70;;;;;;;25.23;41.41;99334.05;112239;1196;96301;-75
2021/08/21 10:58:19;;;;;;;10.00;4.10;;;;;;;25.20;41.45;99331.77;112276;1204;96249;-78
2021/08/21 11:00:53;;;;;;;9.90;4.30;;;;;;;25.14;41.41;99332.44;112296;1198;110927;-78
2021/08/21 11:03:25;;;;;;;8.90;4.70;;;;;;;25.09;41.51;99329.98;112338;1204;96682;-74
2021/08/21 11:05:55;;;;;;;9.00;4.20;;;;;;;24.99;41.51;99330.86;112321;1204;107418;-86
2021/08/21 11:08:30;;;;;;;7.80;4.50;;;;;;;24.95;41.53;99334.77;112311;1203;96357;-74
2021/08/21 11:11:07;;;;;;;7.20;4.20;;;;;;;24.94;41.64;99331.70;112264;1204;96301;-80
2021/08/21 11:13:56;;;;;;;7.20;4.50;;;;;;;24.95;41.76;99337.18;112317;1203;109773;-77
2021/08/21 11:16:54;;;;;;;9.40;4.70;;;;;;;24.93;41.81;99341.61;112306;1204;96392;-76
2021/08/21 11:19:22;;;;;;;9.30;5.00;;;;;;;24.95;41.93;99340.48;112236;1204;107581;-74
2021/08/21 11:21:50;;;;;;;10.20;4.40;;;;;;;24.96;42.00;99335.98;112283;1204;96327;-77
2021/08/21 11:24:24;;;;;;;8.80;4.60;;;;;;;24.91;41.85;99338.65;112276;1204;96331;-76
2021/08/21 11:27:22;;;;;;;9.10;4.50;;;;;;;24.82;42.16;99343.41;112340;1203;109783;-79
2021/08/21 11:30:06;;;;;;;8.90;4.50;;;;;;;24.79;42.27;99343.85;112292;1203;96557;-76